Wells Town, Mississippi
Current Conditions -  °F | °C
As of 9:53 PM on Saturday 22 Nov 2014 (Local Time) from KHBG Reporting Station
Overcast Overcast  
Wind Chill: 17°   Ceiling: 1300
Heat Index: 17°   Visibility: 10mi
Dew Point: 14°   Wind: 10mph
Humidity: 84%   Direction: 100°E
Pressure: 29.99"   Gusts: NA
Location:  31.0601°N, 89.4815°W
Report Text: KHBG 230353Z AUTO 10009KT 10SM OVC013 17/14 A2999 RMK AO2 SLP153 T01670139
Loading
Personal Weather Stations






























Interactive Weather Map New forecast layout! Learn more

10-Day Weather Forecast

Advertisements
Track Severe Weather on mobile